createdAt,value
2022-11-05T00:00:29.177Z,67.30
2022-11-05T00:01:29.254Z,67.58
2022-11-05T00:02:29.161Z,67.05
2022-11-05T00:03:29.195Z,65.38
2022-11-05T00:04:31.113Z,66.07
2022-11-05T00:05:30.119Z,66.48
2022-11-05T00:06:29.149Z,66.76
2022-11-05T00:07:29.110Z,66.03
2022-11-05T00:08:29.101Z,68.67
2022-11-05T00:09:29.086Z,68.31
2022-11-05T00:10:29.075Z,66.67
2022-11-05T00:11:29.091Z,66.98
2022-11-05T00:12:29.054Z,67.05
2022-11-05T00:13:29.053Z,66.92
2022-11-05T00:14:29.035Z,67.66
2022-11-05T00:15:29.033Z,65.31
2022-11-05T00:16:29.040Z,67.37
2022-11-05T00:17:28.991Z,64.97
2022-11-05T00:18:28.993Z,66.91
2022-11-05T00:19:28.988Z,64.38
2022-11-05T00:20:28.979Z,67.38
2022-11-05T00:21:28.979Z,65.00
2022-11-05T00:22:28.972Z,67.74
2022-11-05T00:23:28.949Z,67.66
2022-11-05T00:24:28.939Z,66.83
2022-11-05T00:25:28.928Z,65.74
2022-11-05T00:26:28.935Z,66.03
2022-11-05T00:27:28.905Z,66.05
2022-11-05T00:28:28.928Z,67.82
2022-11-05T00:29:28.885Z,65.66
2022-11-05T00:30:28.884Z,66.53
2022-11-05T00:31:28.890Z,66.79
2022-11-05T00:32:28.862Z,65.69
2022-11-05T00:33:28.848Z,64.95
2022-11-05T00:34:28.846Z,67.49
2022-11-05T00:35:28.833Z,67.73
2022-11-05T00:36:28.840Z,65.66
2022-11-05T00:37:28.803Z,64.18
2022-11-05T00:38:28.797Z,63.74
2022-11-05T00:39:28.792Z,65.16
2022-11-05T00:40:28.776Z,63.28
2022-11-05T00:41:28.784Z,61.42
2022-11-05T00:42:28.763Z,63.93
2022-11-05T00:43:28.742Z,63.38
2022-11-05T00:44:28.746Z,61.95
2022-11-05T00:45:28.723Z,62.20
2022-11-05T00:46:28.739Z,60.90
2022-11-05T00:47:28.707Z,61.72
2022-11-05T00:48:28.704Z,60.61
2022-11-05T00:49:28.683Z,58.75
2022-11-05T00:50:28.678Z,59.38
2022-11-05T00:51:28.695Z,61.64
2022-11-05T00:52:28.661Z,62.41
2022-11-05T00:53:28.632Z,60.13
2022-11-05T00:54:28.641Z,62.59
2022-11-05T00:55:28.655Z,63.37
2022-11-05T00:56:28.650Z,64.64
2022-11-05T00:57:28.603Z,63.05
2022-11-05T00:58:28.606Z,63.26
2022-11-05T00:59:28.593Z,61.47
2022-11-05T01:00:28.585Z,64.06
2022-11-05T01:01:28.746Z,62.82
2022-11-05T01:02:28.613Z,63.92
2022-11-05T01:03:28.549Z,63.80
2022-11-05T01:04:28.622Z,62.82
2022-11-05T01:05:28.535Z,62.64
2022-11-05T01:06:28.537Z,62.55
2022-11-05T01:07:28.506Z,60.42
2022-11-05T01:08:28.500Z,64.40
2022-11-05T01:09:28.496Z,62.58
2022-11-05T01:10:28.485Z,64.36
2022-11-05T01:11:28.498Z,63.23
2022-11-05T01:12:28.468Z,61.54
2022-11-05T01:13:28.453Z,62.80
2022-11-05T01:14:28.444Z,61.80
2022-11-05T01:15:28.440Z,62.72
2022-11-05T01:16:28.437Z,60.84
2022-11-05T01:17:29.404Z,63.47
2022-11-05T01:18:28.411Z,63.27
2022-11-05T01:19:28.403Z,62.79
2022-11-05T01:20:28.380Z,64.04
2022-11-05T01:21:28.396Z,63.92
2022-11-05T01:22:28.366Z,63.86
2022-11-05T01:23:28.357Z,64.76
2022-11-05T01:24:28.352Z,64.21
2022-11-05T01:25:28.332Z,63.76
2022-11-05T01:26:28.369Z,65.90
2022-11-05T01:27:28.322Z,64.22
2022-11-05T01:28:28.337Z,61.76
2022-11-05T01:29:28.298Z,61.17
2022-11-05T01:30:28.294Z,63.85
2022-11-05T01:31:28.325Z,64.30
2022-11-05T01:32:28.282Z,61.81
2022-11-05T01:33:28.246Z,64.24
2022-11-05T01:34:28.248Z,65.62
2022-11-05T01:35:28.244Z,66.35
2022-11-05T01:36:28.255Z,64.80
2022-11-05T01:37:28.217Z,65.75
2022-11-05T01:38:28.209Z,66.29
2022-11-05T01:39:28.195Z,64.78
2022-11-05T01:40:28.197Z,66.65
2022-11-05T01:41:28.183Z,64.17
2022-11-05T01:42:28.187Z,64.48
2022-11-05T01:43:28.165Z,63.84
2022-11-05T01:44:28.154Z,63.20
2022-11-05T01:45:28.139Z,65.29
2022-11-05T01:46:28.135Z,63.34
2022-11-05T01:47:28.147Z,62.66
2022-11-05T01:48:28.097Z,64.58
2022-11-05T01:49:28.099Z,66.19
2022-11-05T01:50:28.093Z,62.84
2022-11-05T01:51:28.083Z,65.27
2022-11-05T01:52:28.087Z,62.90
2022-11-05T01:53:28.062Z,63.48
2022-11-05T01:54:28.051Z,62.96
2022-11-05T01:55:28.043Z,62.63
2022-11-05T01:56:28.026Z,62.29
2022-11-05T01:57:28.044Z,64.70
2022-11-05T01:58:28.013Z,64.32
2022-11-05T01:59:27.999Z,61.83
2022-11-05T02:00:27.992Z,63.77
2022-11-05T02:01:28.168Z,62.12
2022-11-05T02:02:28.077Z,61.86
2022-11-05T02:03:27.958Z,63.96
2022-11-05T02:04:27.950Z,64.16
2022-11-05T02:05:27.941Z,64.12
2022-11-05T02:06:27.926Z,61.61
2022-11-05T02:07:27.952Z,62.30
2022-11-05T02:08:27.911Z,64.65
2022-11-05T02:09:27.902Z,64.08
2022-11-05T02:10:27.891Z,62.34
2022-11-05T02:11:27.882Z,61.40
2022-11-05T02:12:27.886Z,62.70
2022-11-05T02:13:27.878Z,63.37
2022-11-05T02:14:27.854Z,62.56
2022-11-05T02:15:27.845Z,61.81
2022-11-05T02:16:27.832Z,62.33
2022-11-05T02:17:27.847Z,61.19
2022-11-05T02:18:27.816Z,61.20
2022-11-05T02:19:27.813Z,63.89
2022-11-05T02:20:27.788Z,63.61
2022-11-05T02:21:27.790Z,60.95
2022-11-05T02:22:27.800Z,62.79
2022-11-05T02:23:27.764Z,62.63
2022-11-05T02:24:27.753Z,65.25
2022-11-05T02:25:27.745Z,64.24
2022-11-05T02:26:27.745Z,64.49
2022-11-05T02:27:27.746Z,64.95
2022-11-05T02:28:27.717Z,64.67
2022-11-05T02:29:27.718Z,64.12
2022-11-05T02:30:27.700Z,64.81
2022-11-05T02:31:27.697Z,61.96
2022-11-05T02:32:27.701Z,65.48
2022-11-05T02:33:27.672Z,65.19
2022-11-05T02:34:27.666Z,65.21
2022-11-05T02:35:27.652Z,63.08
2022-11-05T02:36:27.643Z,62.84
2022-11-05T02:37:27.651Z,65.23
2022-11-05T02:38:27.622Z,64.49
2022-11-05T02:39:27.613Z,65.31
2022-11-05T02:40:27.590Z,63.53
2022-11-05T02:41:27.600Z,63.82
2022-11-05T02:42:27.604Z,64.42
2022-11-05T02:43:27.577Z,64.67
2022-11-05T02:44:27.550Z,66.01
2022-11-05T02:45:27.573Z,66.41
2022-11-05T02:46:27.539Z,66.01
2022-11-05T02:47:27.560Z,66.61
2022-11-05T02:48:27.522Z,67.81
2022-11-05T02:49:27.522Z,65.03
2022-11-05T02:50:27.508Z,65.32
2022-11-05T02:51:27.502Z,64.04
2022-11-05T02:52:27.500Z,65.15
2022-11-05T02:53:27.479Z,65.97
2022-11-05T02:54:27.473Z,66.87
2022-11-05T02:55:27.479Z,68.13
2022-11-05T02:56:27.447Z,64.93
2022-11-05T02:57:27.455Z,66.20
2022-11-05T02:58:27.439Z,64.57
2022-11-05T02:59:27.425Z,64.21
2022-11-05T03:00:27.398Z,68.05
2022-11-05T03:01:27.523Z,66.66
2022-11-05T03:02:27.509Z,65.71
2022-11-05T03:03:27.388Z,63.73
2022-11-05T03:04:27.367Z,61.88
2022-11-05T03:05:27.364Z,63.50
2022-11-05T03:06:27.354Z,62.23
2022-11-05T03:07:27.364Z,63.28
2022-11-05T03:08:27.335Z,66.54
2022-11-05T03:09:27.318Z,65.52
2022-11-05T03:10:27.327Z,64.31
2022-11-05T03:11:27.307Z,64.06
2022-11-05T03:12:27.317Z,64.24
2022-11-05T03:13:27.291Z,64.94
2022-11-05T03:14:27.275Z,64.54
2022-11-05T03:15:27.270Z,63.75
2022-11-05T03:16:27.254Z,65.45
2022-11-05T03:17:27.276Z,66.25
2022-11-05T03:18:27.244Z,66.68
2022-11-05T03:19:27.232Z,64.39
2022-11-05T03:20:27.223Z,64.27
2022-11-05T03:21:27.200Z,64.01
2022-11-05T03:22:27.225Z,64.02
2022-11-05T03:23:27.193Z,64.60
2022-11-05T03:24:27.190Z,64.98
2022-11-05T03:25:27.181Z,65.40
2022-11-05T03:26:27.164Z,66.52
2022-11-05T03:27:27.179Z,66.35
2022-11-05T03:28:27.150Z,66.97
2022-11-05T03:29:27.129Z,65.65
2022-11-05T03:30:27.120Z,65.77
2022-11-05T03:31:27.111Z,65.34
2022-11-05T03:32:27.128Z,65.77
2022-11-05T03:33:27.088Z,64.73
2022-11-05T03:34:27.087Z,66.46
2022-11-05T03:35:27.076Z,66.22
2022-11-05T03:36:27.063Z,63.63
2022-11-05T03:37:27.078Z,63.31
2022-11-05T03:38:27.056Z,64.28
2022-11-05T03:39:27.039Z,65.41
2022-11-05T03:40:27.026Z,65.33
2022-11-05T03:41:27.023Z,64.16
2022-11-05T03:42:27.048Z,64.13
2022-11-05T03:43:27.004Z,66.36
2022-11-05T03:44:26.994Z,64.94
2022-11-05T03:45:26.982Z,66.63
2022-11-05T03:46:26.973Z,67.46
2022-11-05T03:47:26.975Z,63.78
2022-11-05T03:48:27.008Z,62.99
2022-11-05T03:49:26.942Z,64.91
2022-11-05T03:50:26.933Z,63.08
2022-11-05T03:51:26.967Z,64.18
2022-11-05T03:52:26.928Z,63.99
2022-11-05T03:53:26.908Z,63.01
2022-11-05T03:54:26.896Z,63.52
2022-11-05T03:55:26.886Z,64.94
2022-11-05T03:56:26.883Z,65.80
2022-11-05T03:57:26.904Z,66.51
2022-11-05T03:58:26.854Z,67.18
2022-11-05T03:59:26.841Z,67.11
2022-11-05T04:00:26.902Z,66.07
2022-11-05T04:01:26.962Z,64.83
2022-11-05T04:02:26.949Z,65.25
2022-11-05T04:03:26.802Z,65.89
2022-11-05T04:04:26.797Z,65.17
2022-11-05T04:05:26.812Z,66.78
2022-11-05T04:06:26.780Z,67.22
2022-11-05T04:07:26.790Z,64.68
2022-11-05T04:08:26.746Z,65.63
2022-11-05T04:09:26.731Z,65.16
2022-11-05T04:10:26.730Z,64.15
2022-11-05T04:11:26.720Z,64.22
2022-11-05T04:12:26.729Z,65.81
2022-11-05T04:13:26.708Z,67.01
2022-11-05T04:14:26.696Z,64.50
2022-11-05T04:15:26.686Z,65.25
2022-11-05T04:16:26.682Z,65.56
2022-11-05T04:17:26.683Z,66.54
2022-11-05T04:18:26.656Z,63.11
2022-11-05T04:19:26.648Z,64.88
2022-11-05T04:20:26.665Z,66.01
2022-11-05T04:21:26.610Z,64.13
2022-11-05T04:22:26.634Z,64.64
2022-11-05T04:23:26.604Z,64.24
2022-11-05T04:24:26.600Z,65.76
2022-11-05T04:25:26.579Z,66.58
2022-11-05T04:26:26.579Z,67.24
2022-11-05T04:27:26.588Z,66.96
2022-11-05T04:28:26.562Z,64.14
2022-11-05T04:29:26.540Z,66.44
2022-11-05T04:30:26.539Z,66.29
2022-11-05T04:31:26.531Z,66.71
2022-11-05T04:32:26.537Z,65.95
2022-11-05T04:33:26.499Z,67.03
2022-11-05T04:34:26.500Z,65.99
2022-11-05T04:35:26.492Z,65.14
2022-11-05T04:36:26.485Z,66.57
2022-11-05T04:37:26.487Z,67.66
2022-11-05T04:38:26.462Z,66.84
2022-11-05T04:39:26.454Z,66.83
2022-11-05T04:40:26.447Z,67.55
2022-11-05T04:41:26.436Z,66.31
2022-11-05T04:42:26.433Z,66.92
2022-11-05T04:43:26.415Z,67.08
2022-11-05T04:44:26.399Z,69.02
2022-11-05T04:45:26.396Z,68.41
2022-11-05T04:46:26.384Z,67.03
2022-11-05T04:47:26.391Z,66.86
2022-11-05T04:48:26.358Z,67.46
2022-11-05T04:49:26.357Z,68.61
2022-11-05T04:50:26.350Z,69.18
2022-11-05T04:51:26.336Z,68.80
2022-11-05T04:52:26.346Z,67.11
2022-11-05T04:53:26.322Z,70.23
2022-11-05T04:54:26.305Z,70.21
2022-11-05T04:55:26.291Z,66.72
2022-11-05T04:56:26.286Z,69.06
2022-11-05T04:57:26.298Z,67.12
2022-11-05T04:58:26.257Z,68.75
2022-11-05T04:59:27.264Z,70.99
2022-11-05T05:00:26.232Z,68.43
2022-11-05T05:01:26.368Z,68.02
2022-11-05T05:02:26.245Z,67.24
2022-11-05T05:03:26.218Z,67.26
2022-11-05T05:04:26.194Z,66.73
2022-11-05T05:05:26.197Z,69.14
2022-11-05T05:06:26.187Z,67.78
2022-11-05T05:07:26.190Z,67.95
2022-11-05T05:08:26.160Z,69.71
2022-11-05T05:09:26.154Z,69.18
2022-11-05T05:10:26.148Z,69.64
2022-11-05T05:11:26.130Z,69.00
2022-11-05T05:12:26.146Z,67.22
2022-11-05T05:13:26.111Z,68.73
2022-11-05T05:14:26.095Z,67.31
2022-11-05T05:15:26.097Z,69.32
2022-11-05T05:16:26.081Z,68.20
2022-11-05T05:17:26.088Z,68.11
2022-11-05T05:18:26.062Z,68.09
2022-11-05T05:19:26.049Z,68.44
2022-11-05T05:20:26.031Z,68.32
2022-11-05T05:21:26.029Z,67.29
2022-11-05T05:22:26.038Z,67.97
2022-11-05T05:23:26.011Z,68.15
2022-11-05T05:24:25.991Z,68.88
2022-11-05T05:25:25.989Z,68.68
2022-11-05T05:26:25.980Z,67.14
2022-11-05T05:27:25.993Z,69.38
2022-11-05T05:28:25.965Z,71.73
2022-11-05T05:29:25.941Z,69.51
2022-11-05T05:30:25.942Z,69.35
2022-11-05T05:31:25.945Z,70.04
2022-11-05T05:32:25.922Z,70.30
2022-11-05T05:33:25.913Z,69.18
2022-11-05T05:34:25.900Z,68.47
2022-11-05T05:35:25.893Z,70.75
2022-11-05T05:36:25.890Z,71.05
2022-11-05T05:37:25.891Z,68.93
2022-11-05T05:38:25.860Z,69.23
2022-11-05T05:39:25.858Z,68.48
2022-11-05T05:40:25.834Z,69.04
2022-11-05T05:41:26.895Z,69.91
2022-11-05T05:42:25.846Z,68.63
2022-11-05T05:43:26.818Z,69.27
2022-11-05T05:44:25.811Z,69.10
2022-11-05T05:45:25.797Z,69.14
2022-11-05T05:46:25.787Z,69.70
2022-11-05T05:47:25.794Z,70.15
2022-11-05T05:48:25.753Z,70.15
2022-11-05T05:49:25.745Z,69.09
2022-11-05T05:50:25.740Z,68.58
2022-11-05T05:51:25.728Z,68.30
2022-11-05T05:52:25.727Z,69.28
2022-11-05T05:53:25.705Z,68.98
2022-11-05T05:54:30.849Z,65.89
2022-11-05T05:55:27.693Z,68.35
2022-11-05T05:56:25.681Z,67.06
2022-11-05T05:57:25.690Z,67.95
2022-11-05T05:58:25.654Z,69.00
2022-11-05T05:59:25.653Z,67.56
2022-11-05T06:00:25.644Z,66.37
2022-11-05T06:01:25.704Z,67.37
2022-11-05T06:02:25.731Z,67.99
2022-11-05T06:03:25.607Z,68.85
2022-11-05T06:04:25.598Z,66.95
2022-11-05T06:05:25.588Z,64.95
2022-11-05T06:06:25.574Z,66.50
2022-11-05T06:07:25.589Z,68.21
2022-11-05T06:08:25.550Z,66.78
2022-11-05T06:09:25.545Z,68.92
2022-11-05T06:10:25.576Z,69.11
2022-11-05T06:11:25.526Z,67.12
2022-11-05T06:12:25.525Z,67.39
2022-11-05T06:13:25.508Z,68.88
2022-11-05T06:14:25.496Z,70.44
2022-11-05T06:15:25.481Z,70.16
2022-11-05T06:16:25.478Z,67.05
2022-11-05T06:17:25.491Z,67.01
2022-11-05T06:18:25.458Z,68.89
2022-11-05T06:19:25.445Z,69.51
2022-11-05T06:20:25.438Z,68.21
2022-11-05T06:21:25.424Z,67.26
2022-11-05T06:22:25.437Z,67.20
2022-11-05T06:23:25.406Z,68.92
2022-11-05T06:24:25.400Z,68.59
2022-11-05T06:25:25.441Z,68.81
2022-11-05T06:26:57.293Z,70.23
2022-11-05T06:27:25.416Z,69.41
2022-11-05T06:28:25.357Z,69.67
2022-11-05T06:29:25.345Z,68.93
2022-11-05T06:30:25.328Z,69.51
2022-11-05T06:31:25.320Z,69.43
2022-11-05T06:32:25.338Z,70.44
2022-11-05T06:33:25.293Z,68.88
2022-11-05T06:34:25.287Z,69.17
2022-11-05T06:35:25.265Z,69.25
2022-11-05T06:36:25.260Z,69.62
2022-11-05T06:37:25.266Z,69.76
2022-11-05T06:38:25.248Z,69.61
2022-11-05T06:39:25.221Z,69.93
2022-11-05T06:40:25.219Z,67.52
2022-11-05T06:41:25.211Z,68.69
2022-11-05T06:42:25.221Z,69.26
2022-11-05T06:43:25.185Z,68.23
2022-11-05T06:44:25.180Z,68.98
2022-11-05T06:45:25.176Z,67.03
2022-11-05T06:46:25.163Z,67.47
2022-11-05T06:47:25.169Z,68.03
2022-11-05T06:48:25.130Z,66.83
2022-11-05T06:49:25.138Z,66.39
2022-11-05T06:50:25.123Z,66.22
2022-11-05T06:51:25.104Z,66.81
2022-11-05T06:52:25.126Z,66.56
2022-11-05T06:53:25.088Z,66.52
2022-11-05T06:54:25.081Z,65.43
2022-11-05T06:55:25.075Z,66.75
2022-11-05T06:56:25.065Z,67.34
2022-11-05T06:57:25.070Z,66.08
2022-11-05T06:58:25.047Z,65.48
2022-11-05T06:59:25.029Z,65.35
2022-11-05T07:00:25.021Z,66.05
2022-11-05T07:01:25.119Z,67.19
2022-11-05T07:02:25.054Z,65.02
2022-11-05T07:03:24.977Z,66.58
2022-11-05T07:04:24.999Z,67.89
2022-11-05T07:05:24.963Z,68.85
2022-11-05T07:06:24.964Z,67.88
2022-11-05T07:07:24.961Z,68.13
2022-11-05T07:08:24.935Z,67.97
2022-11-05T07:09:24.921Z,67.69
2022-11-05T07:10:24.923Z,66.93
2022-11-05T07:11:24.895Z,67.13
2022-11-05T07:12:24.919Z,66.28
2022-11-05T07:13:24.882Z,67.07
2022-11-05T07:14:24.867Z,66.75
2022-11-05T07:15:24.859Z,66.16
2022-11-05T07:16:24.849Z,65.50
2022-11-05T07:17:24.857Z,64.98
2022-11-05T07:18:24.831Z,66.00
2022-11-05T07:19:24.837Z,65.66
2022-11-05T07:20:28.213Z,65.96
2022-11-05T07:21:24.795Z,65.70
2022-11-05T07:22:24.799Z,67.50
2022-11-05T07:23:24.775Z,66.43
2022-11-05T07:24:24.755Z,66.58
2022-11-05T07:25:24.753Z,66.74
2022-11-05T07:26:24.742Z,66.18
2022-11-05T07:27:24.760Z,67.46
2022-11-05T07:28:24.730Z,66.53
2022-11-05T07:29:24.706Z,66.36
2022-11-05T07:30:24.712Z,68.75
2022-11-05T07:31:24.692Z,68.59
2022-11-05T07:32:24.685Z,68.49
2022-11-05T07:33:24.671Z,67.76
2022-11-05T07:34:24.662Z,67.45
2022-11-05T07:35:24.651Z,67.54
2022-11-05T07:36:24.650Z,66.41
2022-11-05T07:37:24.643Z,67.86
2022-11-05T07:38:24.627Z,68.52
2022-11-05T07:39:24.611Z,67.28
2022-11-05T07:40:24.587Z,66.00
2022-11-05T07:41:24.640Z,67.28
2022-11-05T07:42:24.602Z,66.73
2022-11-05T07:43:24.568Z,65.86
2022-11-05T07:44:24.813Z,65.25
2022-11-05T07:45:24.579Z,64.21
2022-11-05T07:46:24.538Z,64.72
2022-11-05T07:47:24.549Z,67.30
2022-11-05T07:48:24.513Z,65.50
2022-11-05T07:49:24.520Z,66.90
2022-11-05T07:50:24.504Z,66.07
2022-11-05T07:51:24.501Z,66.22
2022-11-05T07:52:24.501Z,64.49
2022-11-05T07:53:24.468Z,63.85
2022-11-05T07:54:24.462Z,62.55
2022-11-05T07:55:24.457Z,64.46
2022-11-05T07:56:24.433Z,66.31
2022-11-05T07:57:24.443Z,65.34
2022-11-05T07:58:24.418Z,64.99
2022-11-05T07:59:24.403Z,66.59
2022-11-05T08:00:24.405Z,66.01
2022-11-05T08:01:24.537Z,65.63
2022-11-05T08:02:24.606Z,63.88
2022-11-05T08:03:24.495Z,63.63
2022-11-05T08:04:24.368Z,65.56
2022-11-05T08:05:24.356Z,66.09
2022-11-05T08:06:24.344Z,64.68
2022-11-05T08:07:24.352Z,64.34
2022-11-05T08:08:24.328Z,65.42
2022-11-05T08:09:24.331Z,66.84
2022-11-05T08:10:24.303Z,64.20
2022-11-05T08:11:24.295Z,64.48
2022-11-05T08:12:24.303Z,64.11
2022-11-05T08:13:24.272Z,63.69
2022-11-05T08:14:24.282Z,65.01
2022-11-05T08:15:24.257Z,66.43
2022-11-05T08:16:24.247Z,65.09
2022-11-05T08:17:24.259Z,66.25
2022-11-05T08:18:24.247Z,66.20
2022-11-05T08:19:24.216Z,66.00
2022-11-05T08:20:24.198Z,65.15
2022-11-05T08:21:24.201Z,67.39
2022-11-05T08:22:24.212Z,66.30
2022-11-05T08:23:24.184Z,65.89
2022-11-05T08:24:24.173Z,64.66
2022-11-05T08:25:24.156Z,66.04
2022-11-05T08:26:24.151Z,66.02
2022-11-05T08:27:24.177Z,65.95
2022-11-05T08:28:24.120Z,64.51
2022-11-05T08:29:24.117Z,64.95
2022-11-05T08:30:24.116Z,66.50
2022-11-05T08:31:24.096Z,65.23
2022-11-05T08:32:24.282Z,65.18
2022-11-05T08:33:24.085Z,64.82
2022-11-05T08:34:24.073Z,64.73
2022-11-05T08:35:24.063Z,64.31
2022-11-05T08:36:24.052Z,63.38
2022-11-05T08:37:24.063Z,64.18
2022-11-05T08:38:24.039Z,63.50
2022-11-05T08:39:24.020Z,63.91
2022-11-05T08:40:24.009Z,62.92
2022-11-05T08:41:24.004Z,66.00
2022-11-05T08:42:24.017Z,64.19
2022-11-05T08:43:23.982Z,63.63
2022-11-05T08:44:23.978Z,61.58
2022-11-05T08:45:23.963Z,61.73
2022-11-05T08:46:23.985Z,61.31
2022-11-05T08:47:23.964Z,62.57
2022-11-05T08:48:23.965Z,63.19
2022-11-05T08:49:23.924Z,62.75
2022-11-05T08:50:23.915Z,62.18
2022-11-05T08:51:23.916Z,61.51
2022-11-05T08:52:23.918Z,61.87
2022-11-05T08:53:23.884Z,60.67
2022-11-05T08:54:23.877Z,62.26
2022-11-05T08:55:23.866Z,61.14
2022-11-05T08:56:23.857Z,61.50
2022-11-05T08:57:23.865Z,60.53
2022-11-05T08:58:23.832Z,61.57
2022-11-05T08:59:23.824Z,61.16
2022-11-05T09:00:23.907Z,61.16
2022-11-05T09:01:23.901Z,60.61
2022-11-05T09:02:23.878Z,61.35
2022-11-05T09:03:23.789Z,62.52
2022-11-05T09:04:23.779Z,61.46
2022-11-05T09:05:23.769Z,61.77
2022-11-05T09:06:23.762Z,60.47
2022-11-05T09:07:23.773Z,61.39
2022-11-05T09:08:23.750Z,61.10
2022-11-05T09:09:23.732Z,59.71
2022-11-05T09:10:23.851Z,63.41
2022-11-05T09:11:33.149Z,62.61
2022-11-05T09:12:25.717Z,61.68
2022-11-05T09:13:23.862Z,60.17
2022-11-05T09:14:23.678Z,61.48
2022-11-05T09:15:23.681Z,60.11
2022-11-05T09:16:23.645Z,61.84
2022-11-05T09:17:23.673Z,63.45
2022-11-05T09:18:23.640Z,62.47
2022-11-05T09:19:23.632Z,62.79
2022-11-05T09:20:23.759Z,61.46
2022-11-05T09:21:23.612Z,62.56
2022-11-05T09:22:23.627Z,63.51
2022-11-05T09:23:23.604Z,62.88
2022-11-05T09:24:23.587Z,62.03
2022-11-05T09:25:23.578Z,62.05
2022-11-05T09:26:23.581Z,63.59
2022-11-05T09:27:23.576Z,62.19
2022-11-05T09:28:23.562Z,62.83
2022-11-05T09:29:23.540Z,62.64
2022-11-05T09:30:23.564Z,62.88
2022-11-05T09:31:23.516Z,62.65
2022-11-05T09:32:23.528Z,63.88
2022-11-05T09:33:23.512Z,63.84
2022-11-05T09:34:23.485Z,64.54
2022-11-05T09:35:23.473Z,62.20
2022-11-05T09:36:23.639Z,63.14
2022-11-05T09:37:23.477Z,61.30
2022-11-05T09:38:23.445Z,62.37
2022-11-05T09:39:23.438Z,62.50
2022-11-05T09:40:23.524Z,62.20
2022-11-05T09:41:23.420Z,62.87
2022-11-05T09:42:23.513Z,63.23
2022-11-05T09:43:28.800Z,62.33
2022-11-05T09:44:23.399Z,63.27
2022-11-05T09:45:23.404Z,64.17
2022-11-05T09:46:23.398Z,63.46
2022-11-05T09:47:23.387Z,62.89
2022-11-05T09:48:23.356Z,62.82
2022-11-05T09:49:23.344Z,61.94
2022-11-05T09:50:23.421Z,64.36
2022-11-05T09:51:24.297Z,61.30
2022-11-05T09:52:23.328Z,62.95
2022-11-05T09:53:23.299Z,61.77
2022-11-05T09:54:23.289Z,62.17
2022-11-05T09:55:23.272Z,61.90
2022-11-05T09:56:23.265Z,60.99
2022-11-05T09:57:23.282Z,59.69
2022-11-05T09:58:28.372Z,61.28
2022-11-05T09:59:25.238Z,61.89
2022-11-05T10:00:23.307Z,62.67
2022-11-05T10:01:23.356Z,62.22
2022-11-05T10:02:23.290Z,62.86
2022-11-05T10:03:23.198Z,62.43
2022-11-05T10:04:23.189Z,63.26
2022-11-05T10:05:23.269Z,63.62
2022-11-05T10:06:23.171Z,61.94
2022-11-05T10:07:23.174Z,62.86
2022-11-05T10:08:23.142Z,62.00
2022-11-05T10:09:23.179Z,61.70
2022-11-05T10:10:23.130Z,62.26
2022-11-05T10:11:23.114Z,62.23
2022-11-05T10:12:23.219Z,62.26
2022-11-05T10:13:23.111Z,63.60
2022-11-05T10:14:23.094Z,63.70
2022-11-05T10:15:23.085Z,64.16
2022-11-05T10:16:23.070Z,63.41
2022-11-05T10:17:23.092Z,64.66
2022-11-05T10:18:23.100Z,64.02
2022-11-05T10:19:23.037Z,63.45
2022-11-05T10:20:23.032Z,63.54
2022-11-05T10:21:44.228Z,62.13
2022-11-05T10:22:25.030Z,62.13
2022-11-05T10:23:22.999Z,62.96
2022-11-05T10:24:22.988Z,62.76
2022-11-05T10:25:22.983Z,61.61
2022-11-05T10:26:22.966Z,62.62
2022-11-05T10:27:22.949Z,63.13
2022-11-05T10:28:23.159Z,63.44
2022-11-05T10:29:22.947Z,64.10
2022-11-05T10:30:22.931Z,64.55
2022-11-05T10:31:22.926Z,64.33
2022-11-05T10:32:22.964Z,62.82
2022-11-05T10:33:22.921Z,63.31
2022-11-05T10:34:22.889Z,63.77
2022-11-05T10:35:22.876Z,63.95
2022-11-05T10:36:22.874Z,62.75
2022-11-05T10:37:22.863Z,63.37
2022-11-05T10:38:22.873Z,63.31
2022-11-05T10:39:22.874Z,64.09
2022-11-05T10:40:22.967Z,64.21
2022-11-05T10:41:22.825Z,64.09
2022-11-05T10:42:22.815Z,63.00
2022-11-05T10:43:22.828Z,62.72
2022-11-05T10:44:22.796Z,64.54
2022-11-05T10:45:22.788Z,64.03
2022-11-05T10:46:22.779Z,63.72
2022-11-05T10:47:22.758Z,63.34
2022-11-05T10:48:22.779Z,63.21
2022-11-05T10:49:22.871Z,64.04
2022-11-05T10:50:22.738Z,63.77
2022-11-05T10:51:22.713Z,62.81
2022-11-05T10:52:22.710Z,62.98
2022-11-05T10:53:22.725Z,63.56
2022-11-05T10:54:22.695Z,64.57
2022-11-05T10:55:22.679Z,63.34
2022-11-05T10:56:22.747Z,63.91
2022-11-05T10:57:22.664Z,64.92
2022-11-05T10:58:22.672Z,65.07
2022-11-05T10:59:22.666Z,65.45
2022-11-05T11:00:22.632Z,65.22
2022-11-05T11:01:22.717Z,64.91
2022-11-05T11:02:22.689Z,65.35
2022-11-05T11:03:22.614Z,67.88
2022-11-05T11:04:22.597Z,66.08
2022-11-05T11:05:22.592Z,67.25
2022-11-05T11:06:22.572Z,67.25
2022-11-05T11:07:22.548Z,66.78
2022-11-05T11:08:22.572Z,67.26
2022-11-05T11:09:22.539Z,66.99
2022-11-05T11:10:22.529Z,67.00
2022-11-05T11:11:22.526Z,66.77
2022-11-05T11:12:22.508Z,67.41
2022-11-05T11:13:22.527Z,67.75
2022-11-05T11:14:22.495Z,66.77
2022-11-05T11:15:22.481Z,68.16
2022-11-05T11:16:22.483Z,67.02
2022-11-05T11:17:22.476Z,67.10
2022-11-05T11:18:22.476Z,66.34
2022-11-05T11:19:22.451Z,67.29
2022-11-05T11:20:22.442Z,66.79
2022-11-05T11:21:22.424Z,65.95
2022-11-05T11:22:22.417Z,66.19
2022-11-05T11:23:22.423Z,65.68
2022-11-05T11:24:22.401Z,66.11
2022-11-05T11:25:22.385Z,66.36
2022-11-05T11:26:22.385Z,65.19
2022-11-05T11:27:22.363Z,64.66
2022-11-05T11:28:22.375Z,65.61
2022-11-05T11:29:22.345Z,66.29
2022-11-05T11:30:22.336Z,64.26
2022-11-05T11:31:22.323Z,63.99
2022-11-05T11:32:22.317Z,64.89
2022-11-05T11:33:22.327Z,64.83
2022-11-05T11:34:22.299Z,62.77
2022-11-05T11:35:22.293Z,61.74
2022-11-05T11:36:22.283Z,63.28
2022-11-05T11:37:22.265Z,63.31
2022-11-05T11:38:22.279Z,62.92
2022-11-05T11:39:22.254Z,63.96
2022-11-05T11:40:22.236Z,64.19
2022-11-05T11:41:22.231Z,63.37
2022-11-05T11:42:22.228Z,64.03
2022-11-05T11:43:22.231Z,64.48
2022-11-05T11:44:22.195Z,63.92
2022-11-05T11:45:22.189Z,65.13
2022-11-05T11:46:22.189Z,64.37
2022-11-05T11:47:22.170Z,63.69
2022-11-05T11:48:22.177Z,64.97
2022-11-05T11:49:22.154Z,65.20
2022-11-05T11:50:22.139Z,63.97
2022-11-05T11:51:22.129Z,64.46
2022-11-05T11:52:22.127Z,63.70
2022-11-05T11:53:22.141Z,63.15
2022-11-05T11:54:24.819Z,64.07
2022-11-05T11:55:23.094Z,63.01
2022-11-05T11:56:22.083Z,64.32
2022-11-05T11:57:22.097Z,63.19
2022-11-05T11:58:22.067Z,64.87
2022-11-05T11:59:35.122Z,63.50
2022-11-05T12:00:24.058Z,63.32
2022-11-05T12:01:22.055Z,63.47
2022-11-05T12:02:22.185Z,64.11
2022-11-05T12:03:22.103Z,62.92
2022-11-05T12:04:22.009Z,63.28
2022-11-05T12:05:21.984Z,61.39
2022-11-05T12:06:21.989Z,61.57
2022-11-05T12:07:21.993Z,62.79
2022-11-05T12:08:21.965Z,62.79
2022-11-05T12:09:21.955Z,63.23
2022-11-05T12:10:21.946Z,62.78
2022-11-05T12:11:21.937Z,63.09
2022-11-05T12:12:21.932Z,61.54
2022-11-05T12:13:21.912Z,61.14
2022-11-05T12:14:21.903Z,62.25
2022-11-05T12:15:21.893Z,62.63
2022-11-05T12:16:21.949Z,62.81
2022-11-05T12:17:21.893Z,63.27
2022-11-05T12:18:21.861Z,62.39
2022-11-05T12:19:21.853Z,61.56
2022-11-05T12:20:21.836Z,61.90
2022-11-05T12:21:47.759Z,63.76
2022-11-05T12:22:22.846Z,61.69
2022-11-05T12:23:21.816Z,63.08
2022-11-05T12:24:21.810Z,63.58
2022-11-05T12:25:21.795Z,61.41
2022-11-05T12:26:21.794Z,62.25
2022-11-05T12:27:21.795Z,61.52
2022-11-05T12:28:21.768Z,62.98
2022-11-05T12:29:21.764Z,63.11
2022-11-05T12:32:47.663Z,62.06
2022-11-05T12:33:47.597Z,62.34
2022-11-05T12:34:47.588Z,62.37
2022-11-05T12:35:53.325Z,61.59
2022-11-05T12:36:49.680Z,63.16
2022-11-05T12:37:48.704Z,62.76
2022-11-05T12:38:48.673Z,61.90
2022-11-05T12:39:48.654Z,62.47
2022-11-05T12:40:49.647Z,62.44
2022-11-05T12:41:48.642Z,62.00
2022-11-05T12:42:48.647Z,63.03
2022-11-05T12:43:48.624Z,63.62
2022-11-05T12:44:48.620Z,63.58
2022-11-05T12:45:48.599Z,64.85
2022-11-05T12:46:48.592Z,63.17
2022-11-05T12:47:48.596Z,63.27
2022-11-05T12:48:48.575Z,63.81
2022-11-05T12:49:48.558Z,63.39
2022-11-05T12:50:48.560Z,63.36
2022-11-05T12:51:48.550Z,63.41
2022-11-05T12:52:48.555Z,62.18
2022-11-05T12:53:48.523Z,62.65
2022-11-05T12:54:48.509Z,63.71